Time;durP1;ratioP1;P1;durP2;ratioP2;P2;SDS_P1;SDS_P2;PMS_P1;PMS_P2;Temp;Humidity;BMP_temperature;BMP_pressure;BME280_temperature;BME280_humidity;BME280_pressure;Samples;Min_cycle;Max_cycle;Signal;HPM_P1;HPM_P2
2023/09/12 00:00:03;;;;;;;66.00;36.65;;;;;;;;;;4933272;29;20146;-79
2023/09/12 00:02:29;;;;;;;63.75;37.15;;;;;;;;;;4934060;29;20490;-80
2023/09/12 00:04:55;;;;;;;63.60;37.67;;;;;;;;;;4918511;29;20090;-80
2023/09/12 00:07:21;;;;;;;;;;;;;;;;;;4918015;29;20055;-79
2023/09/12 00:09:47;;;;;;;57.58;35.00;;;;;;;;;;4934386;29;19974;-80
2023/09/12 00:12:16;;;;;;;64.30;36.40;;;;;;;;;;4918073;29;20090;-79
2023/09/12 00:14:42;;;;;;;60.83;35.08;;;;;;;;;;4933605;29;20048;-80
2023/09/12 00:17:09;;;;;;;63.80;36.67;;;;;;;;;;4916811;29;20429;-80
2023/09/12 00:19:35;;;;;;;60.35;35.92;;;;;;;;;;4914832;29;20087;-79
2023/09/12 00:22:03;;;;;;;64.82;37.10;;;;;;;;;;4890476;29;20673;-80
2023/09/12 00:24:29;;;;;;;57.20;34.55;;;;;;;;;;4914356;29;20052;-79
2023/09/12 00:26:55;;;;;;;62.78;35.50;;;;;;;;;;4914846;29;20053;-80
2023/09/12 00:29:21;;;;;;;;;;;;;;;;;;4900909;29;20047;-80
2023/09/12 00:31:47;;;;;;;61.00;35.58;;;;;;;;;;4918042;29;19929;-80
2023/09/12 00:34:13;;;;;;;;;;;;;;;;;;4918552;29;20075;-80
2023/09/12 00:36:39;;;;;;;61.25;36.08;;;;;;;;;;4933740;29;19955;-80
2023/09/12 00:39:05;;;;;;;;;;;;;;;;;;4913914;29;20048;-80
2023/09/12 00:41:31;;;;;;;66.70;36.88;;;;;;;;;;4898471;29;19923;-79
2023/09/12 00:43:58;;;;;;;;;;;;;;;;;;4883174;29;20047;-79
2023/09/12 00:46:24;;;;;;;72.10;39.95;;;;;;;;;;4913703;29;19923;-79
2023/09/12 00:48:52;;;;;;;47.08;26.13;;;;;;;;;;4914659;29;20051;-79
2023/09/12 00:51:20;;;;;;;48.90;25.80;;;;;;;;;;4915852;29;20052;-79
2023/09/12 00:53:46;;;;;;;64.25;36.05;;;;;;;;;;4917561;29;20046;-80
2023/09/12 00:56:13;;;;;;;51.97;29.05;;;;;;;;;;4933105;29;20062;-80
2023/09/12 00:58:39;;;;;;;45.45;26.52;;;;;;;;;;4903550;29;20134;-80
2023/09/12 01:01:05;;;;;;;76.28;41.38;;;;;;;;;;4914413;29;20107;-80
2023/09/12 01:03:31;;;;;;;69.82;40.60;;;;;;;;;;4921199;29;20063;-80
2023/09/12 01:05:58;;;;;;;66.88;38.10;;;;;;;;;;4913185;29;20048;-80
2023/09/12 01:08:24;;;;;;;76.63;41.75;;;;;;;;;;4914333;29;20100;-80
2023/09/12 01:10:50;;;;;;;84.75;43.60;;;;;;;;;;4914483;29;20075;-80
2023/09/12 01:13:17;;;;;;;81.25;43.03;;;;;;;;;;4913914;29;20052;-80
2023/09/12 01:15:43;;;;;;;71.53;39.15;;;;;;;;;;4913887;29;20080;-80
2023/09/12 01:18:10;;;;;;;70.28;39.15;;;;;;;;;;4917716;29;20047;-80
2023/09/12 01:20:37;;;;;;;56.25;35.05;;;;;;;;;;4930951;29;20052;-80
2023/09/12 01:23:21;;;;;;;57.08;33.65;;;;;;;;;;4933526;29;20040;-80
2023/09/12 01:26:12;;;;;;;55.50;33.50;;;;;;;;;;4933058;29;20051;-81
2023/09/12 01:28:42;;;;;;;63.38;36.03;;;;;;;;;;4915709;29;20056;-80
2023/09/12 01:31:09;;;;;;;60.53;34.65;;;;;;;;;;4917261;29;20052;-80
2023/09/12 01:33:35;;;;;;;64.80;34.10;;;;;;;;;;4920801;29;20075;-80
2023/09/12 01:36:01;;;;;;;;;;;;;;;;;;4915008;29;20080;-80
2023/09/12 01:38:27;;;;;;;84.78;33.17;;;;;;;;;;4926314;29;19923;-80
2023/09/12 01:40:54;;;;;;;70.85;35.10;;;;;;;;;;4901442;29;20504;-80
2023/09/12 01:43:22;;;;;;;86.03;40.42;;;;;;;;;;4916039;29;20505;-80
2023/09/12 01:45:49;;;;;;;88.47;41.97;;;;;;;;;;4913645;29;20051;-80
2023/09/12 01:48:19;;;;;;;87.05;43.92;;;;;;;;;;4916786;29;20051;-80
2023/09/12 01:50:45;;;;;;;84.60;42.45;;;;;;;;;;4927615;29;20052;-80
2023/09/12 01:53:14;;;;;;;91.13;44.17;;;;;;;;;;4914327;29;20068;-80
2023/09/12 01:55:40;;;;;;;75.50;40.42;;;;;;;;;;4898278;29;20044;-80
2023/09/12 01:58:06;;;;;;;75.65;39.55;;;;;;;;;;4913916;29;20187;-80
2023/09/12 02:00:33;;;;;;;204.02;35.40;;;;;;;;;;4919864;29;20047;-80
2023/09/12 02:02:59;;;;;;;348.77;32.47;;;;;;;;;;4920218;29;20493;-80
2023/09/12 02:05:26;;;;;;;297.05;29.52;;;;;;;;;;4902220;29;20052;-80
2023/09/12 02:07:52;;;;;;;293.88;32.42;;;;;;;;;;4931780;29;20495;-80
2023/09/12 02:10:18;;;;;;;;;;;;;;;;;;4933647;29;20074;-80
2023/09/12 02:12:44;;;;;;;190.40;33.10;;;;;;;;;;4919654;29;19923;-80
2023/09/12 02:15:12;;;;;;;;;;;;;;;;;;4920021;29;20094;-81
2023/09/12 02:17:38;;;;;;;68.35;34.22;;;;;;;;;;4931602;29;19923;-80
2023/09/12 02:20:06;;;;;;;82.72;35.67;;;;;;;;;;4918255;29;20047;-80
2023/09/12 02:22:32;;;;;;;66.50;35.70;;;;;;;;;;4915350;29;20131;-80
2023/09/12 02:24:58;;;;;;;78.53;36.28;;;;;;;;;;4900926;29;20150;-80
2023/09/12 02:27:24;;;;;;;;;;;;;;;;;;4916793;29;20063;-80
2023/09/12 02:29:50;;;;;;;96.75;37.15;;;;;;;;;;4900315;29;19923;-80
2023/09/12 02:32:16;;;;;;;;;;;;;;;;;;4914098;29;20132;-80
2023/09/12 02:34:42;;;;;;;70.55;39.42;;;;;;;;;;4916627;29;19990;-80
2023/09/12 02:37:08;;;;;;;;;;;;;;;;;;4895142;29;20086;-80
2023/09/12 02:39:34;;;;;;;138.55;36.83;;;;;;;;;;4901573;29;19970;-80
2023/09/12 02:42:00;;;;;;;242.25;37.67;;;;;;;;;;4920061;29;20127;-80
2023/09/12 02:44:26;;;;;;;301.45;39.88;;;;;;;;;;4916288;29;20076;-80
2023/09/12 02:46:52;;;;;;;;;;;;;;;;;;4916551;29;20398;-80
2023/09/12 02:49:18;;;;;;;272.60;38.22;;;;;;;;;;4901518;29;19923;-80
2023/09/12 02:51:45;;;;;;;176.68;39.92;;;;;;;;;;4916547;29;20108;-80
2023/09/12 02:54:11;;;;;;;284.90;40.88;;;;;;;;;;4919349;29;20127;-80
2023/09/12 02:56:37;;;;;;;110.50;36.13;;;;;;;;;;4935217;29;20044;-80
2023/09/12 02:59:04;;;;;;;233.52;38.00;;;;;;;;;;4919088;29;20079;-80
2023/09/12 03:01:31;;;;;;;147.68;37.25;;;;;;;;;;4888029;29;20101;-80
2023/09/12 03:03:58;;;;;;;357.67;39.80;;;;;;;;;;4929508;29;20062;-80
2023/09/12 03:06:24;;;;;;;306.10;38.20;;;;;;;;;;4888275;29;20051;-80
2023/09/12 03:08:50;;;;;;;;;;;;;;;;;;4935477;29;20051;-80
2023/09/12 03:11:16;;;;;;;253.57;39.50;;;;;;;;;;4933767;29;19950;-80
2023/09/12 03:13:42;;;;;;;279.63;42.08;;;;;;;;;;4933522;29;20055;-80
2023/09/12 03:16:11;;;;;;;274.25;44.17;;;;;;;;;;4919522;29;20441;-80
2023/09/12 03:18:38;;;;;;;233.38;44.70;;;;;;;;;;4929072;29;20044;-80
2023/09/12 03:21:04;;;;;;;228.13;44.33;;;;;;;;;;4915893;29;20083;-80
2023/09/12 03:23:30;;;;;;;239.02;45.50;;;;;;;;;;4916264;29;20048;-79
2023/09/12 03:26:01;;;;;;;314.10;45.90;;;;;;;;;;4915375;29;20390;-80
2023/09/12 03:28:27;;;;;;;343.00;45.28;;;;;;;;;;4930473;29;20052;-80
2023/09/12 03:30:53;;;;;;;;;;;;;;;;;;4919202;29;20083;-80
2023/09/12 03:33:19;;;;;;;272.80;38.40;;;;;;;;;;4909931;29;19931;-80
2023/09/12 03:35:45;;;;;;;295.33;38.75;;;;;;;;;;4903024;29;20089;-80
2023/09/12 03:38:11;;;;;;;;;;;;;;;;;;4887155;29;20561;-80
2023/09/12 03:40:37;;;;;;;309.92;40.25;;;;;;;;;;4900267;29;19923;-80
2023/09/12 03:43:03;;;;;;;382.73;44.00;;;;;;;;;;4915190;29;20048;-80
2023/09/12 03:45:29;;;;;;;373.05;44.20;;;;;;;;;;4883763;29;20510;-80
2023/09/12 03:47:55;;;;;;;;;;;;;;;;;;4929098;29;20489;-80
2023/09/12 03:50:21;;;;;;;264.75;40.05;;;;;;;;;;4919164;29;19977;-80
2023/09/12 03:52:47;;;;;;;292.23;42.25;;;;;;;;;;4918365;29;20485;-80
2023/09/12 03:55:13;;;;;;;;;;;;;;;;;;4903592;29;20485;-80
2023/09/12 03:57:39;;;;;;;277.50;42.20;;;;;;;;;;4934489;29;19930;-80
2023/09/12 04:00:05;;;;;;;;;;;;;;;;;;4933819;29;20090;-80
2023/09/12 04:02:31;;;;;;;205.35;39.20;;;;;;;;;;4919010;29;19923;-80
2023/09/12 04:04:59;;;;;;;217.13;41.53;;;;;;;;;;4918933;29;20083;-80
2023/09/12 04:07:25;;;;;;;230.68;43.00;;;;;;;;;;4900161;29;20087;-80
2023/09/12 04:09:51;;;;;;;233.00;42.05;;;;;;;;;;4914507;29;20059;-80
2023/09/12 04:12:17;;;;;;;257.38;43.90;;;;;;;;;;4899505;29;20508;-79
2023/09/12 04:14:43;;;;;;;;;;;;;;;;;;4897440;29;20498;-80
2023/09/12 04:17:09;;;;;;;204.50;40.05;;;;;;;;;;4934644;29;20028;-80
2023/09/12 04:19:35;;;;;;;;;;;;;;;;;;4913193;29;20070;-80
2023/09/12 04:22:01;;;;;;;217.63;42.05;;;;;;;;;;4908942;29;20368;-80
2023/09/12 04:24:27;;;;;;;253.52;42.92;;;;;;;;;;4914990;29;20040;-80
2023/09/12 04:26:53;;;;;;;;;;;;;;;;;;4884033;29;20074;-80
2023/09/12 04:29:19;;;;;;;202.38;41.53;;;;;;;;;;4914528;29;19923;-80
2023/09/12 04:31:45;;;;;;;;;;;;;;;;;;4916910;29;20051;-80
2023/09/12 04:34:11;;;;;;;228.40;39.05;;;;;;;;;;4918619;29;19945;-80
2023/09/12 04:36:37;;;;;;;;;;;;;;;;;;4924012;29;20048;-79
2023/09/12 04:39:05;;;;;;;177.95;37.20;;;;;;;;;;4914460;29;19923;-80
2023/09/12 04:41:31;;;;;;;210.95;41.78;;;;;;;;;;4914498;29;20059;-80
2023/09/12 04:43:58;;;;;;;;;;;;;;;;;;4913347;29;20067;-80
2023/09/12 04:46:24;;;;;;;164.02;36.83;;;;;;;;;;4914716;29;19931;-80
2023/09/12 04:48:50;;;;;;;202.38;41.15;;;;;;;;;;4917760;29;20071;-80
2023/09/12 04:51:17;;;;;;;;;;;;;;;;;;4903058;29;20123;-80
2023/09/12 04:53:44;;;;;;;179.10;42.80;;;;;;;;;;4933911;29;19923;-81
2023/09/12 04:56:10;;;;;;;178.27;37.15;;;;;;;;;;4917622;29;20499;-80
2023/09/12 04:58:36;;;;;;;218.88;41.67;;;;;;;;;;4898905;29;20047;-80
2023/09/12 05:01:02;;;;;;;145.15;41.50;;;;;;;;;;4917199;29;20106;-80
2023/09/12 05:03:28;;;;;;;165.68;40.05;;;;;;;;;;4917997;29;20051;-80
2023/09/12 05:05:54;;;;;;;253.48;41.58;;;;;;;;;;4917486;29;20047;-80
2023/09/12 05:08:21;;;;;;;;;;;;;;;;;;4934012;29;20050;-80
2023/09/12 05:10:47;;;;;;;313.33;42.70;;;;;;;;;;4933690;29;19923;-80
2023/09/12 05:13:13;;;;;;;301.45;45.38;;;;;;;;;;4931674;29;20055;-80
2023/09/12 05:15:41;;;;;;;377.60;49.30;;;;;;;;;;4917197;29;20397;-80
2023/09/12 05:18:07;;;;;;;176.88;39.33;;;;;;;;;;4933009;29;20047;-80
2023/09/12 05:20:34;;;;;;;141.20;37.67;;;;;;;;;;4914679;29;20052;-80
2023/09/12 05:23:00;;;;;;;150.07;38.20;;;;;;;;;;4913820;29;20052;-80
2023/09/12 05:25:29;;;;;;;136.93;39.70;;;;;;;;;;4914194;29;20059;-80
2023/09/12 05:27:55;;;;;;;121.57;34.97;;;;;;;;;;4913628;29;20520;-80
2023/09/12 05:30:21;;;;;;;;;;;;;;;;;;4914099;29;20058;-80
2023/09/12 05:32:47;;;;;;;119.72;35.88;;;;;;;;;;4914633;29;19923;-80
2023/09/12 05:35:14;;;;;;;85.03;36.60;;;;;;;;;;4934955;29;20048;-80
2023/09/12 05:37:39;;;;;;;;;;;;;;;;;;4936875;29;20054;-80
2023/09/12 05:40:06;;;;;;;87.72;37.50;;;;;;;;;;4920348;29;19923;-80
2023/09/12 05:42:32;;;;;;;85.43;36.85;;;;;;;;;;4921008;29;20475;-80
2023/09/12 05:44:58;;;;;;;80.65;33.67;;;;;;;;;;4916510;29;20082;-80
2023/09/12 05:47:24;;;;;;;;;;;;;;;;;;4918071;29;20060;-80
2023/09/12 05:49:50;;;;;;;92.53;38.90;;;;;;;;;;4934018;29;19923;-80
2023/09/12 05:52:16;;;;;;;66.07;36.15;;;;;;;;;;4902132;29;20394;-80
2023/09/12 05:54:42;;;;;;;;;;;;;;;;;;4918593;29;20044;-80
2023/09/12 05:57:09;;;;;;;64.13;33.03;;;;;;;;;;4934237;29;20383;-80
2023/09/12 05:59:39;;;;;;;67.22;34.83;;;;;;;;;;4936340;29;20070;-80
2023/09/12 06:02:06;;;;;;;66.57;34.08;;;;;;;;;;4926422;29;20046;-80
2023/09/12 06:04:35;;;;;;;85.03;36.90;;;;;;;;;;4917536;29;20040;-80
2023/09/12 06:07:02;;;;;;;77.57;36.85;;;;;;;;;;4917263;29;20052;-80
2023/09/12 06:09:28;;;;;;;82.68;37.90;;;;;;;;;;4917838;29;20075;-80
2023/09/12 06:11:54;;;;;;;85.80;40.10;;;;;;;;;;4922947;29;20048;-80
2023/09/12 06:14:20;;;;;;;72.82;37.40;;;;;;;;;;4916713;29;20044;-80
2023/09/12 06:16:46;;;;;;;81.47;39.15;;;;;;;;;;4919885;29;20042;-80
2023/09/12 06:19:14;;;;;;;73.28;37.03;;;;;;;;;;4905134;29;20070;-80
2023/09/12 06:21:40;;;;;;;69.85;37.72;;;;;;;;;;4917598;29;20518;-80
2023/09/12 06:24:14;;;;;;;72.95;36.63;;;;;;;;;;4901155;29;20091;-78
2023/09/12 06:26:40;;;;;;;70.60;35.35;;;;;;;;;;4917328;29;20052;-79
2023/09/12 06:29:07;;;;;;;66.07;34.65;;;;;;;;;;4916238;29;20044;-80
2023/09/12 06:31:33;;;;;;;71.70;36.03;;;;;;;;;;4917061;29;20051;-79
2023/09/12 06:33:59;;;;;;;75.45;36.22;;;;;;;;;;4931405;29;20071;-80
2023/09/12 06:36:29;;;;;;;72.93;36.13;;;;;;;;;;4933081;29;20052;-79
2023/09/12 06:38:55;;;;;;;63.53;33.47;;;;;;;;;;4914634;29;20084;-80
2023/09/12 06:41:21;;;;;;;67.22;33.42;;;;;;;;;;4927291;29;20106;-66
2023/09/12 06:43:48;;;;;;;67.60;33.95;;;;;;;;;;4935431;29;20062;-72
2023/09/12 06:46:14;;;;;;;75.70;36.22;;;;;;;;;;4929556;29;20048;-72
2023/09/12 06:48:40;;;;;;;69.25;34.72;;;;;;;;;;4935180;29;20055;-73
2023/09/12 06:51:07;;;;;;;74.80;36.00;;;;;;;;;;4919718;29;20044;-79
2023/09/12 06:53:33;;;;;;;69.05;35.35;;;;;;;;;;4936004;29;20075;-77
2023/09/12 06:55:59;;;;;;;;;;;;;;;;;;4936145;29;20477;-80
2023/09/12 06:58:26;;;;;;;79.30;37.22;;;;;;;;;;4934344;29;19932;-80
2023/09/12 07:00:52;;;;;;;73.57;37.63;;;;;;;;;;4919177;29;20493;-80
2023/09/12 07:03:18;;;;;;;65.07;33.83;;;;;;;;;;4919527;29;20040;-80
2023/09/12 07:05:44;;;;;;;64.80;33.97;;;;;;;;;;4934845;29;20458;-80
2023/09/12 07:08:11;;;;;;;67.80;34.40;;;;;;;;;;4919090;29;20138;-80
2023/09/12 07:10:37;;;;;;;62.75;33.05;;;;;;;;;;4917007;29;20048;-80
2023/09/12 07:13:03;;;;;;;62.10;32.95;;;;;;;;;;4915892;29;20051;-80
2023/09/12 07:15:29;;;;;;;70.20;34.08;;;;;;;;;;4900156;29;20083;-80
2023/09/12 07:17:56;;;;;;;;;;;;;;;;;;4916852;29;20072;-80
2023/09/12 07:20:23;;;;;;;66.43;34.85;;;;;;;;;;4928033;29;20005;-80
2023/09/12 07:22:49;;;;;;;68.05;33.85;;;;;;;;;;4919763;29;20052;-80
2023/09/12 07:25:16;;;;;;;72.40;35.45;;;;;;;;;;4934677;29;20051;-80
2023/09/12 07:27:42;;;;;;;67.40;33.65;;;;;;;;;;4918303;29;20043;-80
2023/09/12 07:30:08;;;;;;;;;;;;;;;;;;4918551;29;20090;-80
2023/09/12 07:32:34;;;;;;;70.70;34.90;;;;;;;;;;4932445;29;19966;-80
2023/09/12 07:35:00;;;;;;;66.50;33.92;;;;;;;;;;4916321;29;20040;-80
2023/09/12 07:37:26;;;;;;;;;;;;;;;;;;4916127;29;20118;-80
2023/09/12 07:39:52;;;;;;;76.32;34.42;;;;;;;;;;4932448;29;19922;-80
2023/09/12 07:42:22;;;;;;;61.33;31.50;;;;;;;;;;4933786;29;20471;-78
2023/09/12 07:44:48;;;;;;;62.33;31.40;;;;;;;;;;4933461;29;20576;-69
2023/09/12 07:47:14;;;;;;;;;;;;;;;;;;4935904;29;20070;-69
2023/09/12 07:49:40;;;;;;;63.65;30.92;;;;;;;;;;4934995;29;19926;-70
2023/09/12 07:52:06;;;;;;;64.57;31.88;;;;;;;;;;4934198;29;20198;-72
2023/09/12 07:54:32;;;;;;;69.45;34.95;;;;;;;;;;4935855;29;20118;-69
2023/09/12 07:56:59;;;;;;;68.13;34.58;;;;;;;;;;4934600;29;20079;-70
2023/09/12 07:59:25;;;;;;;65.50;32.60;;;;;;;;;;4924435;29;20170;-81
2023/09/12 08:01:51;;;;;;;62.28;32.17;;;;;;;;;;4929417;29;20059;-76
2023/09/12 08:04:17;;;;;;;60.47;32.22;;;;;;;;;;4941942;29;20071;-74
2023/09/12 08:06:43;;;;;;;57.03;30.83;;;;;;;;;;4940119;29;20171;-79
2023/09/12 08:09:10;;;;;;;59.55;31.70;;;;;;;;;;4943490;29;20050;-79
2023/09/12 08:11:36;;;;;;;64.88;33.40;;;;;;;;;;4947044;29;20548;-79
2023/09/12 08:14:02;;;;;;;70.05;33.50;;;;;;;;;;4928574;29;20083;-78
2023/09/12 08:16:28;;;;;;;;;;;;;;;;;;4924155;29;20056;-79
2023/09/12 08:18:54;;;;;;;63.57;32.77;;;;;;;;;;4900405;29;20329;-79
2023/09/12 08:21:20;;;;;;;63.55;32.28;;;;;;;;;;4891030;29;20048;-78
2023/09/12 08:23:46;;;;;;;64.60;32.95;;;;;;;;;;4929588;29;20172;-78
2023/09/12 08:26:12;;;;;;;57.17;31.58;;;;;;;;;;4902999;29;20060;-78
2023/09/12 08:28:39;;;;;;;;;;;;;;;;;;4903097;29;20082;-78
2023/09/12 08:31:05;;;;;;;68.73;33.13;;;;;;;;;;4921173;29;19950;-78
2023/09/12 08:33:31;;;;;;;65.90;33.80;;;;;;;;;;4919704;29;20303;-78
2023/09/12 08:35:58;;;;;;;60.25;32.50;;;;;;;;;;4918363;29;20111;-78
2023/09/12 08:38:24;;;;;;;59.97;32.88;;;;;;;;;;4930945;29;20330;-78
2023/09/12 08:40:51;;;;;;;56.45;30.58;;;;;;;;;;4934246;29;20051;-78
2023/09/12 08:43:17;;;;;;;54.75;29.88;;;;;;;;;;4911843;29;20063;-79
2023/09/12 08:45:44;;;;;;;57.38;32.05;;;;;;;;;;4923597;29;20052;-81
2023/09/12 08:48:12;;;;;;;53.20;29.55;;;;;;;;;;4935540;29;20623;-80
2023/09/12 08:50:38;;;;;;;51.17;29.42;;;;;;;;;;4940609;29;20047;-78
2023/09/12 08:53:04;;;;;;;53.22;29.23;;;;;;;;;;4912335;29;20551;-77
2023/09/12 08:55:33;;;;;;;55.13;30.60;;;;;;;;;;4922521;29;20059;-78
2023/09/12 08:57:59;;;;;;;52.20;29.25;;;;;;;;;;4912827;29;20040;-78
2023/09/12 09:00:27;;;;;;;53.55;28.80;;;;;;;;;;4916993;29;20048;-81
2023/09/12 09:02:53;;;;;;;53.70;29.13;;;;;;;;;;4918167;29;20130;-78
2023/09/12 09:05:21;;;;;;;49.15;27.02;;;;;;;;;;4918816;29;20047;-76
2023/09/12 09:07:48;;;;;;;47.25;26.92;;;;;;;;;;4914878;29;20055;-81
2023/09/12 09:10:16;;;;;;;49.83;27.40;;;;;;;;;;4897894;29;20139;-81
2023/09/12 09:12:43;;;;;;;42.90;25.77;;;;;;;;;;4922132;29;20062;-80
2023/09/12 09:15:22;;;;;;;45.90;26.48;;;;;;;;;;4939828;29;20067;-80
2023/09/12 09:17:50;;;;;;;46.72;27.50;;;;;;;;;;4902105;29;20059;-80
2023/09/12 09:20:26;;;;;;;48.83;26.88;;;;;;;;;;4916920;29;20055;-79
2023/09/12 09:23:05;;;;;;;49.72;27.85;;;;;;;;;;4926019;29;20481;-80
2023/09/12 09:25:37;;;;;;;50.95;27.55;;;;;;;;;;4903477;29;20055;-80
2023/09/12 09:28:22;;;;;;;44.90;25.90;;;;;;;;;;4923681;29;20098;-80
2023/09/12 09:30:50;;;;;;;36.00;22.08;;;;;;;;;;4918430;29;20810;-80
2023/09/12 09:33:16;;;;;;;39.47;22.10;;;;;;;;;;4905825;29;20100;-80
2023/09/12 09:35:43;;;;;;;34.75;21.23;;;;;;;;;;4892578;29;20139;-80
2023/09/12 09:38:09;;;;;;;35.58;20.40;;;;;;;;;;4929624;29;20087;-80
2023/09/12 09:40:36;;;;;;;34.70;21.30;;;;;;;;;;4910504;29;20044;-80
2023/09/12 09:43:03;;;;;;;36.95;22.95;;;;;;;;;;4921117;29;20043;-80
2023/09/12 09:45:30;;;;;;;34.38;21.95;;;;;;;;;;4920771;29;20076;-80
2023/09/12 09:48:06;;;;;;;35.42;20.98;;;;;;;;;;4928007;29;20134;-80
2023/09/12 09:50:36;;;;;;;35.83;21.50;;;;;;;;;;4916360;29;20086;-79
2023/09/12 09:53:04;;;;;;;37.70;22.48;;;;;;;;;;4929878;29;20052;-81
2023/09/12 09:55:32;;;;;;;35.53;21.17;;;;;;;;;;4916109;29;20052;-80
2023/09/12 09:57:58;;;;;;;34.10;22.25;;;;;;;;;;4932454;29;20051;-79
2023/09/12 10:00:24;;;;;;;34.20;21.70;;;;;;;;;;4915139;29;20056;-82
2023/09/12 10:02:54;;;;;;;37.63;22.52;;;;;;;;;;4933047;29;20051;-82
2023/09/12 10:05:20;;;;;;;35.65;21.75;;;;;;;;;;4916655;29;20036;-81
2023/09/12 10:07:49;;;;;;;34.75;21.98;;;;;;;;;;4927678;29;20048;-82
2023/09/12 10:10:16;;;;;;;34.97;22.15;;;;;;;;;;4925599;29;20134;-84
2023/09/12 10:12:46;;;;;;;36.42;22.02;;;;;;;;;;4930588;29;20195;-74
2023/09/12 10:15:15;;;;;;;35.55;22.13;;;;;;;;;;4932109;29;20052;-73
2023/09/12 10:17:43;;;;;;;34.58;20.83;;;;;;;;;;4926964;29;20047;-73
2023/09/12 10:20:15;;;;;;;32.33;21.67;;;;;;;;;;4934190;29;20051;-73
2023/09/12 10:22:47;;;;;;;34.33;21.45;;;;;;;;;;4927226;29;20362;-74
2023/09/12 10:25:14;;;;;;;34.38;21.58;;;;;;;;;;4929257;29;20083;-73
2023/09/12 10:27:40;;;;;;;33.13;20.42;;;;;;;;;;4919370;29;20134;-79
2023/09/12 10:30:07;;;;;;;32.05;21.17;;;;;;;;;;4936118;29;20059;-71
2023/09/12 10:32:34;;;;;;;32.70;21.13;;;;;;;;;;4935693;29;20079;-70
2023/09/12 10:35:00;;;;;;;32.33;20.98;;;;;;;;;;4937264;29;20044;-69
2023/09/12 10:37:28;;;;;;;31.92;19.92;;;;;;;;;;4926533;28;20051;-67
2023/09/12 10:39:54;;;;;;;32.78;21.88;;;;;;;;;;4922805;29;20581;-70
2023/09/12 10:42:21;;;;;;;32.00;21.27;;;;;;;;;;4917259;29;20067;-66
2023/09/12 10:44:47;;;;;;;34.35;21.77;;;;;;;;;;4917160;29;20168;-74
2023/09/12 10:47:13;;;;;;;33.85;21.38;;;;;;;;;;4916659;29;20048;-73
2023/09/12 10:49:40;;;;;;;35.50;21.88;;;;;;;;;;4933403;29;20481;-75
2023/09/12 10:52:06;;;;;;;33.92;21.38;;;;;;;;;;4934380;29;20043;-74
2023/09/12 10:54:39;;;;;;;33.65;22.20;;;;;;;;;;4934767;29;20529;-73
2023/09/12 10:57:06;;;;;;;33.33;21.45;;;;;;;;;;4925880;29;20055;-74
2023/09/12 10:59:35;;;;;;;32.67;21.17;;;;;;;;;;4918485;29;20044;-75
2023/09/12 11:02:20;;;;;;;32.30;20.30;;;;;;;;;;4922928;29;20052;-75
2023/09/12 11:04:46;;;;;;;32.38;19.52;;;;;;;;;;4921978;29;20043;-76
2023/09/12 11:07:35;;;;;;;34.05;21.60;;;;;;;;;;4929314;29;20044;-74
2023/09/12 11:10:18;;;;;;;32.45;21.38;;;;;;;;;;4935374;29;20043;-74
2023/09/12 11:12:44;;;;;;;34.55;21.80;;;;;;;;;;4911190;29;20180;-74
2023/09/12 11:15:11;;;;;;;30.98;20.70;;;;;;;;;;4915525;29;20052;-75
2023/09/12 11:18:04;;;;;;;35.13;21.80;;;;;;;;;;4936282;29;20047;-74
2023/09/12 11:20:50;;;;;;;32.88;21.50;;;;;;;;;;4923566;29;20063;-75
2023/09/12 11:23:16;;;;;;;31.77;20.25;;;;;;;;;;4943736;29;20393;-73
2023/09/12 11:25:44;;;;;;;28.55;19.33;;;;;;;;;;4936853;29;20102;-73
2023/09/12 11:28:10;;;;;;;28.20;18.90;;;;;;;;;;4922087;29;20404;-73
2023/09/12 11:30:36;;;;;;;31.98;20.33;;;;;;;;;;4924787;29;20047;-73
2023/09/12 11:33:06;;;;;;;29.10;19.38;;;;;;;;;;4929492;29;20490;-73
2023/09/12 11:35:36;;;;;;;29.42;19.80;;;;;;;;;;4922862;29;20050;-75
2023/09/12 11:38:03;;;;;;;30.23;19.70;;;;;;;;;;4937503;29;20055;-72
2023/09/12 11:40:35;;;;;;;31.10;20.15;;;;;;;;;;4934881;29;20048;-73
2023/09/12 11:43:01;;;;;;;31.77;20.35;;;;;;;;;;4939094;29;20051;-72
2023/09/12 11:45:28;;;;;;;25.08;16.58;;;;;;;;;;4930449;29;20593;-72
2023/09/12 11:47:54;;;;;;;27.67;18.75;;;;;;;;;;4933708;29;20230;-72
2023/09/12 11:50:30;;;;;;;28.33;18.48;;;;;;;;;;4938824;29;20051;-72
2023/09/12 11:52:56;;;;;;;;;;;;;;;;;;4929161;29;20051;-72
2023/09/12 11:55:23;;;;;;;28.10;17.50;;;;;;;;;;4941676;29;19926;-74
2023/09/12 11:57:49;;;;;;;27.73;17.85;;;;;;;;;;4927414;29;20476;-75
2023/09/12 12:00:19;;;;;;;25.67;16.88;;;;;;;;;;4927820;29;20150;-74
2023/09/12 12:02:45;;;;;;;29.52;17.83;;;;;;;;;;4914508;29;20552;-73
2023/09/12 12:05:12;;;;;;;28.65;18.73;;;;;;;;;;4930493;29;20044;-75
2023/09/12 12:07:38;;;;;;;29.15;18.25;;;;;;;;;;4931178;29;20043;-75
2023/09/12 12:10:05;;;;;;;26.73;18.17;;;;;;;;;;4926897;29;20078;-75
2023/09/12 12:12:31;;;;;;;23.63;15.85;;;;;;;;;;4933591;29;20134;-75
2023/09/12 12:14:58;;;;;;;26.58;17.05;;;;;;;;;;4916885;29;20125;-75
2023/09/12 12:17:24;;;;;;;24.75;16.75;;;;;;;;;;4931962;29;20052;-76
2023/09/12 12:19:50;;;;;;;24.05;16.10;;;;;;;;;;4925217;29;20497;-77
2023/09/12 12:22:16;;;;;;;24.35;16.90;;;;;;;;;;4931781;29;20055;-74
2023/09/12 12:24:46;;;;;;;25.52;16.00;;;;;;;;;;4932065;29;20047;-74
2023/09/12 12:27:15;;;;;;;23.52;16.23;;;;;;;;;;4929405;29;20553;-74
2023/09/12 12:29:42;;;;;;;25.88;16.10;;;;;;;;;;4927685;29;20505;-76
2023/09/12 12:32:09;;;;;;;26.80;15.07;;;;;;;;;;4933684;29;20540;-73
2023/09/12 12:34:36;;;;;;;22.45;15.10;;;;;;;;;;4930703;29;20099;-73
2023/09/12 12:37:02;;;;;;;22.92;15.68;;;;;;;;;;4924587;29;20055;-74
2023/09/12 12:39:28;;;;;;;21.55;15.50;;;;;;;;;;4930414;29;20486;-73
2023/09/12 12:41:55;;;;;;;22.13;15.15;;;;;;;;;;4917495;29;20055;-73
2023/09/12 12:44:21;;;;;;;22.23;14.68;;;;;;;;;;4932286;29;20087;-74
2023/09/12 12:46:52;;;;;;;20.13;14.23;;;;;;;;;;4929860;29;20175;-74
2023/09/12 12:49:18;;;;;;;20.60;13.90;;;;;;;;;;4933836;29;20044;-73
2023/09/12 12:51:45;;;;;;;21.02;15.23;;;;;;;;;;4933255;29;20048;-74
2023/09/12 12:54:11;;;;;;;21.65;14.00;;;;;;;;;;4933453;29;20039;-74
2023/09/12 12:56:38;;;;;;;17.90;12.98;;;;;;;;;;4933415;29;20138;-74
2023/09/12 12:59:06;;;;;;;18.00;13.57;;;;;;;;;;4916463;29;20122;-73
2023/09/12 13:01:34;;;;;;;17.40;12.73;;;;;;;;;;4933020;29;20497;-74
2023/09/12 13:04:00;;;;;;;17.80;12.60;;;;;;;;;;4933151;29;20494;-74
2023/09/12 13:06:27;;;;;;;18.02;12.55;;;;;;;;;;4917542;29;20478;-74
2023/09/12 13:08:54;;;;;;;16.45;11.57;;;;;;;;;;4932978;29;20094;-74
2023/09/12 13:11:20;;;;;;;16.60;12.00;;;;;;;;;;4923228;29;20044;-74
2023/09/12 13:13:51;;;;;;;17.42;11.02;;;;;;;;;;4925824;29;20454;-76
2023/09/12 13:16:17;;;;;;;15.90;11.13;;;;;;;;;;4932524;29;20047;-74
2023/09/12 13:18:43;;;;;;;18.90;11.98;;;;;;;;;;4932793;29;20047;-74
2023/09/12 13:21:09;;;;;;;16.00;10.90;;;;;;;;;;4930686;29;20051;-73
2023/09/12 13:23:37;;;;;;;15.05;9.43;;;;;;;;;;4917379;29;20067;-74
2023/09/12 13:26:03;;;;;;;14.73;10.05;;;;;;;;;;4931219;29;20051;-74
2023/09/12 13:28:29;;;;;;;15.32;9.90;;;;;;;;;;4938313;29;20050;-74
2023/09/12 13:30:57;;;;;;;14.27;9.48;;;;;;;;;;4900492;29;20379;-74
2023/09/12 13:33:23;;;;;;;13.15;9.32;;;;;;;;;;4916267;29;20132;-74
2023/09/12 13:35:49;;;;;;;15.38;10.13;;;;;;;;;;4916905;29;20055;-76
2023/09/12 13:38:16;;;;;;;14.52;9.73;;;;;;;;;;4930266;29;20047;-74
2023/09/12 13:40:44;;;;;;;17.38;10.18;;;;;;;;;;4920563;29;20047;-74
2023/09/12 13:43:10;;;;;;;17.13;10.15;;;;;;;;;;4931436;29;20066;-74
2023/09/12 13:45:36;;;;;;;17.25;9.43;;;;;;;;;;4912975;29;20047;-74
2023/09/12 13:48:03;;;;;;;13.82;9.07;;;;;;;;;;4916786;29;20063;-74
2023/09/12 13:50:30;;;;;;;12.90;8.10;;;;;;;;;;4929565;29;20559;-74
2023/09/12 13:52:56;;;;;;;17.88;8.50;;;;;;;;;;4926390;29;20401;-73
2023/09/12 13:55:23;;;;;;;11.65;7.43;;;;;;;;;;4922945;29;20056;-75
2023/09/12 13:57:49;;;;;;;14.20;8.57;;;;;;;;;;4935313;29;20070;-76
2023/09/12 14:00:15;;;;;;;12.32;7.93;;;;;;;;;;4926803;29;20047;-75
2023/09/12 14:02:41;;;;;;;12.68;8.60;;;;;;;;;;4926420;29;20055;-75
2023/09/12 14:05:07;;;;;;;12.50;8.60;;;;;;;;;;4935038;29;20036;-75
2023/09/12 14:07:35;;;;;;;14.25;8.98;;;;;;;;;;4912378;29;20059;-75
2023/09/12 14:10:01;;;;;;;10.63;8.00;;;;;;;;;;4935270;29;20048;-75
2023/09/12 14:12:27;;;;;;;14.20;8.50;;;;;;;;;;4927571;29;20043;-74
2023/09/12 14:14:53;;;;;;;12.60;8.57;;;;;;;;;;4917477;29;20055;-75
2023/09/12 14:17:20;;;;;;;14.05;9.10;;;;;;;;;;4944171;29;20532;-74
2023/09/12 14:19:46;;;;;;;15.30;9.02;;;;;;;;;;4919781;29;20051;-74
2023/09/12 14:22:12;;;;;;;16.25;8.85;;;;;;;;;;4930579;29;20056;-73
2023/09/12 14:24:38;;;;;;;16.00;8.07;;;;;;;;;;4932965;29;20047;-91
2023/09/12 14:27:05;;;;;;;12.73;7.55;;;;;;;;;;4937062;29;20477;-86